sensor_id;sensor_type;location;lat;lon;timestamp;temperature;humidity
4249;DHT22;8404;48.752;12.922;2023-01-09T13:23:51;7.30;93.60
4249;DHT22;8404;48.752;12.922;2023-01-09T13:26:23;7.30;91.20
4249;DHT22;8404;48.752;12.922;2023-01-09T13:28:57;7.30;91.30
4249;DHT22;8404;48.752;12.922;2023-01-09T13:32:04;7.30;91.40
4249;DHT22;8404;48.752;12.922;2023-01-09T13:34:37;7.30;91.80
4249;DHT22;8404;48.752;12.922;2023-01-09T13:37:20;7.30;91.70
4249;DHT22;8404;48.752;12.922;2023-01-09T13:39:57;7.30;91.90
4249;DHT22;8404;48.752;12.922;2023-01-09T13:42:29;7.20;91.70
4249;DHT22;8404;48.752;12.922;2023-01-09T13:45:19;7.20;92.10
4249;DHT22;8404;48.752;12.922;2023-01-09T13:48:30;7.20;91.90
4249;DHT22;8404;48.752;12.922;2023-01-09T13:57:31;7.20;91.80
4249;DHT22;8404;48.752;12.922;2023-01-09T14:03:17;7.20;92.00
4249;DHT22;8404;48.752;12.922;2023-01-09T14:08:48;7.20;92.10
4249;DHT22;8404;48.752;12.922;2023-01-09T14:11:22;7.20;92.30
4249;DHT22;8404;48.752;12.922;2023-01-09T14:14:13;7.10;92.30
4249;DHT22;8404;48.752;12.922;2023-01-09T14:16:43;7.20;92.40
4249;DHT22;8404;48.752;12.922;2023-01-09T14:19:31;7.20;92.50
4249;DHT22;8404;48.752;12.922;2023-01-09T14:22:00;7.10;92.70
4249;DHT22;8404;48.752;12.922;2023-01-09T14:24:32;7.10;92.60
4249;DHT22;8404;48.752;12.922;2023-01-09T14:30:33;7.10;92.70
4249;DHT22;8404;48.752;12.922;2023-01-09T14:33:04;7.20;93.10
4249;DHT22;8404;48.752;12.922;2023-01-09T14:35:54;7.20;93.20
4249;DHT22;8404;48.752;12.922;2023-01-09T14:38:30;7.20;93.30
4249;DHT22;8404;48.752;12.922;2023-01-09T14:41:03;7.20;93.20
4249;DHT22;8404;48.752;12.922;2023-01-09T14:43:43;7.20;92.90
4249;DHT22;8404;48.752;12.922;2023-01-09T14:46:15;7.20;92.60
4249;DHT22;8404;48.752;12.922;2023-01-09T14:48:56;7.20;92.40
4249;DHT22;8404;48.752;12.922;2023-01-09T14:51:28;7.10;92.40
4249;DHT22;8404;48.752;12.922;2023-01-09T14:53:59;7.10;92.20
4249;DHT22;8404;48.752;12.922;2023-01-09T14:56:29;7.20;92.20
4249;DHT22;8404;48.752;12.922;2023-01-09T14:59:10;7.10;92.30
4249;DHT22;8404;48.752;12.922;2023-01-09T15:01:43;7.10;92.10
4249;DHT22;8404;48.752;12.922;2023-01-09T15:04:24;7.10;92.00
4249;DHT22;8404;48.752;12.922;2023-01-09T15:06:53;7.10;92.50
4249;DHT22;8404;48.752;12.922;2023-01-09T15:09:24;7.00;92.50
4249;DHT22;8404;48.752;12.922;2023-01-09T15:11:55;7.10;92.60
4249;DHT22;8404;48.752;12.922;2023-01-09T15:14:30;7.00;92.50
4249;DHT22;8404;48.752;12.922;2023-01-09T15:17:01;7.10;92.40
4249;DHT22;8404;48.752;12.922;2023-01-09T15:19:30;7.10;92.40
4249;DHT22;8404;48.752;12.922;2023-01-09T15:22:01;7.10;92.50
4249;DHT22;8404;48.752;12.922;2023-01-09T15:24:31;7.10;92.40
4249;DHT22;8404;48.752;12.922;2023-01-09T15:27:02;7.10;92.50
4249;DHT22;8404;48.752;12.922;2023-01-09T15:29:30;7.10;92.60
4249;DHT22;8404;48.752;12.922;2023-01-09T15:32:03;7.10;92.40
4249;DHT22;8404;48.752;12.922;2023-01-09T15:34:32;7.00;92.60
4249;DHT22;8404;48.752;12.922;2023-01-09T15:37:01;7.00;92.70
4249;DHT22;8404;48.752;12.922;2023-01-09T15:39:34;7.00;92.30
4249;DHT22;8404;48.752;12.922;2023-01-09T15:42:23;7.00;92.40
4249;DHT22;8404;48.752;12.922;2023-01-09T15:45:22;7.00;92.40
4249;DHT22;8404;48.752;12.922;2023-01-09T15:47:52;6.90;92.60
4249;DHT22;8404;48.752;12.922;2023-01-09T15:50:25;6.90;92.80
4249;DHT22;8404;48.752;12.922;2023-01-09T15:52:55;6.90;92.50
4249;DHT22;8404;48.752;12.922;2023-01-09T15:55:27;6.90;92.60
4249;DHT22;8404;48.752;12.922;2023-01-09T15:58:02;6.80;92.70
4249;DHT22;8404;48.752;12.922;2023-01-09T16:00:36;6.80;93.00
4249;DHT22;8404;48.752;12.922;2023-01-09T16:03:17;6.80;93.40
4249;DHT22;8404;48.752;12.922;2023-01-09T16:05:49;6.80;94.00
4249;DHT22;8404;48.752;12.922;2023-01-09T16:08:24;6.70;94.10
4249;DHT22;8404;48.752;12.922;2023-01-09T16:10:55;6.70;94.40
4249;DHT22;8404;48.752;12.922;2023-01-09T16:13:25;6.60;94.70
4249;DHT22;8404;48.752;12.922;2023-01-09T16:15:55;6.50;95.00
4249;DHT22;8404;48.752;12.922;2023-01-09T16:18:31;6.50;95.10
4249;DHT22;8404;48.752;12.922;2023-01-09T16:21:04;6.40;95.40
4249;DHT22;8404;48.752;12.922;2023-01-09T16:23:34;6.30;95.60
4249;DHT22;8404;48.752;12.922;2023-01-09T16:26:04;6.20;95.80
4249;DHT22;8404;48.752;12.922;2023-01-09T16:28:33;6.10;96.00
4249;DHT22;8404;48.752;12.922;2023-01-09T16:31:03;6.00;96.10
4249;DHT22;8404;48.752;12.922;2023-01-09T16:33:43;5.90;96.30
4249;DHT22;8404;48.752;12.922;2023-01-09T16:36:12;5.90;96.50
4249;DHT22;8404;48.752;12.922;2023-01-09T16:38:42;5.80;96.70
4249;DHT22;8404;48.752;12.922;2023-01-09T16:41:14;5.80;96.80
4249;DHT22;8404;48.752;12.922;2023-01-09T16:44:00;5.80;97.00
4249;DHT22;8404;48.752;12.922;2023-01-09T16:46:33;5.80;97.00
4249;DHT22;8404;48.752;12.922;2023-01-09T16:49:12;5.80;97.10
4249;DHT22;8404;48.752;12.922;2023-01-09T16:51:42;5.80;97.20
4249;DHT22;8404;48.752;12.922;2023-01-09T16:54:10;5.90;97.20
4249;DHT22;8404;48.752;12.922;2023-01-09T16:56:39;5.80;97.30
4249;DHT22;8404;48.752;12.922;2023-01-09T16:59:11;5.80;97.40
4249;DHT22;8404;48.752;12.922;2023-01-09T17:01:40;5.80;97.50
4249;DHT22;8404;48.752;12.922;2023-01-09T17:04:12;5.70;97.70
4249;DHT22;8404;48.752;12.922;2023-01-09T17:06:41;5.70;97.90
4249;DHT22;8404;48.752;12.922;2023-01-09T17:09:11;5.70;98.00
4249;DHT22;8404;48.752;12.922;2023-01-09T17:11:40;5.70;98.00
4249;DHT22;8404;48.752;12.922;2023-01-09T17:14:10;5.70;98.10
4249;DHT22;8404;48.752;12.922;2023-01-09T17:16:39;5.70;98.00
4249;DHT22;8404;48.752;12.922;2023-01-09T17:19:14;5.70;98.20
4249;DHT22;8404;48.752;12.922;2023-01-09T17:21:43;5.70;98.30
4249;DHT22;8404;48.752;12.922;2023-01-09T17:24:11;5.70;98.40
4249;DHT22;8404;48.752;12.922;2023-01-09T17:26:57;5.70;98.70
4249;DHT22;8404;48.752;12.922;2023-01-09T17:29:43;5.70;98.80
4249;DHT22;8404;48.752;12.922;2023-01-09T17:32:12;5.60;98.80
4249;DHT22;8404;48.752;12.922;2023-01-09T17:34:43;5.60;98.90
4249;DHT22;8404;48.752;12.922;2023-01-09T17:37:13;5.60;98.90
4249;DHT22;8404;48.752;12.922;2023-01-09T17:39:42;5.60;99.00
4249;DHT22;8404;48.752;12.922;2023-01-09T17:42:10;5.50;99.00
4249;DHT22;8404;48.752;12.922;2023-01-09T17:44:38;5.50;99.20
4249;DHT22;8404;48.752;12.922;2023-01-09T17:47:31;5.50;99.30
4249;DHT22;8404;48.752;12.922;2023-01-09T17:50:02;5.50;99.30
4249;DHT22;8404;48.752;12.922;2023-01-09T17:52:30;5.50;99.50
4249;DHT22;8404;48.752;12.922;2023-01-09T17:54:58;5.60;99.30
4249;DHT22;8404;48.752;12.922;2023-01-09T17:57:31;5.60;99.30
4249;DHT22;8404;48.752;12.922;2023-01-09T17:59:59;5.60;99.00
4249;DHT22;8404;48.752;12.922;2023-01-09T18:02:30;5.70;99.30
4249;DHT22;8404;48.752;12.922;2023-01-09T18:04:58;5.60;99.00
4249;DHT22;8404;48.752;12.922;2023-01-09T18:07:28;5.70;99.00
4249;DHT22;8404;48.752;12.922;2023-01-09T18:09:56;5.70;99.00
4249;DHT22;8404;48.752;12.922;2023-01-09T18:12:24;5.70;99.10
4249;DHT22;8404;48.752;12.922;2023-01-09T18:14:52;5.70;99.00
4249;DHT22;8404;48.752;12.922;2023-01-09T18:17:20;5.70;98.90
4249;DHT22;8404;48.752;12.922;2023-01-09T18:19:48;5.70;98.70
4249;DHT22;8404;48.752;12.922;2023-01-09T18:22:16;5.70;98.70
4249;DHT22;8404;48.752;12.922;2023-01-09T18:24:46;5.70;98.70
4249;DHT22;8404;48.752;12.922;2023-01-09T18:27:14;5.70;98.50
4249;DHT22;8404;48.752;12.922;2023-01-09T18:29:42;5.60;98.60
4249;DHT22;8404;48.752;12.922;2023-01-09T18:32:10;5.50;98.40
4249;DHT22;8404;48.752;12.922;2023-01-09T18:34:38;5.50;99.00
